sensor_id;sensor_type;location;lat;lon;timestamp;P1;durP1;ratioP1;P2;durP2;ratioP2
1682;SDS011;13252;53.596;10.060;2022-12-24T00:01:00;30.07;;;15.40;;
1682;SDS011;13252;53.596;10.060;2022-12-24T00:03:27;29.63;;;14.50;;
1682;SDS011;13252;53.596;10.060;2022-12-24T00:05:55;33.13;;;15.80;;
1682;SDS011;13252;53.596;10.060;2022-12-24T00:08:23;34.37;;;16.43;;
1682;SDS011;13252;53.596;10.060;2022-12-24T00:10:51;28.17;;;14.50;;
1682;SDS011;13252;53.596;10.060;2022-12-24T00:13:19;29.30;;;14.97;;
1682;SDS011;13252;53.596;10.060;2022-12-24T00:15:47;34.70;;;14.77;;
1682;SDS011;13252;53.596;10.060;2022-12-24T00:18:16;30.20;;;15.27;;
1682;SDS011;13252;53.596;10.060;2022-12-24T00:20:44;28.90;;;14.90;;
1682;SDS011;13252;53.596;10.060;2022-12-24T00:23:13;29.27;;;15.10;;
1682;SDS011;13252;53.596;10.060;2022-12-24T00:25:41;30.83;;;16.47;;
1682;SDS011;13252;53.596;10.060;2022-12-24T00:28:09;30.90;;;16.17;;
1682;SDS011;13252;53.596;10.060;2022-12-24T00:30:37;40.90;;;16.20;;
1682;SDS011;13252;53.596;10.060;2022-12-24T00:33:05;30.37;;;15.33;;
1682;SDS011;13252;53.596;10.060;2022-12-24T00:35:34;29.00;;;15.07;;
1682;SDS011;13252;53.596;10.060;2022-12-24T00:38:02;28.60;;;14.00;;
1682;SDS011;13252;53.596;10.060;2022-12-24T00:40:30;29.23;;;15.80;;
1682;SDS011;13252;53.596;10.060;2022-12-24T00:42:59;33.67;;;14.80;;
1682;SDS011;13252;53.596;10.060;2022-12-24T00:45:27;31.67;;;15.90;;
1682;SDS011;13252;53.596;10.060;2022-12-24T00:47:55;24.87;;;13.50;;
1682;SDS011;13252;53.596;10.060;2022-12-24T00:50:22;31.97;;;15.27;;
1682;SDS011;13252;53.596;10.060;2022-12-24T00:52:51;27.07;;;13.53;;
1682;SDS011;13252;53.596;10.060;2022-12-24T00:55:19;29.27;;;14.73;;
1682;SDS011;13252;53.596;10.060;2022-12-24T00:57:46;35.27;;;14.60;;
1682;SDS011;13252;53.596;10.060;2022-12-24T01:00:14;38.57;;;14.80;;
1682;SDS011;13252;53.596;10.060;2022-12-24T01:02:43;29.90;;;15.27;;
1682;SDS011;13252;53.596;10.060;2022-12-24T01:05:11;27.63;;;13.77;;
1682;SDS011;13252;53.596;10.060;2022-12-24T01:07:39;29.93;;;14.60;;
1682;SDS011;13252;53.596;10.060;2022-12-24T01:10:10;29.20;;;14.40;;
1682;SDS011;13252;53.596;10.060;2022-12-24T01:12:39;37.30;;;15.30;;
1682;SDS011;13252;53.596;10.060;2022-12-24T01:15:07;28.90;;;13.60;;
1682;SDS011;13252;53.596;10.060;2022-12-24T01:17:35;28.67;;;14.07;;
1682;SDS011;13252;53.596;10.060;2022-12-24T01:20:05;29.13;;;13.77;;
1682;SDS011;13252;53.596;10.060;2022-12-24T01:22:34;32.40;;;14.10;;
1682;SDS011;13252;53.596;10.060;2022-12-24T01:25:01;31.87;;;15.80;;
1682;SDS011;13252;53.596;10.060;2022-12-24T01:27:31;33.00;;;16.07;;
1682;SDS011;13252;53.596;10.060;2022-12-24T01:29:59;29.43;;;14.30;;
1682;SDS011;13252;53.596;10.060;2022-12-24T01:32:26;33.50;;;15.03;;
1682;SDS011;13252;53.596;10.060;2022-12-24T01:34:54;24.50;;;14.17;;
1682;SDS011;13252;53.596;10.060;2022-12-24T01:37:22;26.07;;;14.20;;
1682;SDS011;13252;53.596;10.060;2022-12-24T01:39:49;28.13;;;14.03;;
1682;SDS011;13252;53.596;10.060;2022-12-24T01:42:40;31.37;;;14.13;;
1682;SDS011;13252;53.596;10.060;2022-12-24T01:45:37;24.70;;;12.23;;
1682;SDS011;13252;53.596;10.060;2022-12-24T01:48:11;30.03;;;16.00;;
1682;SDS011;13252;53.596;10.060;2022-12-24T01:50:42;33.80;;;14.57;;
1682;SDS011;13252;53.596;10.060;2022-12-24T01:53:10;28.77;;;15.23;;
1682;SDS011;13252;53.596;10.060;2022-12-24T01:55:38;34.87;;;14.20;;
1682;SDS011;13252;53.596;10.060;2022-12-24T01:58:07;28.60;;;15.00;;
1682;SDS011;13252;53.596;10.060;2022-12-24T02:00:35;37.67;;;15.00;;
1682;SDS011;13252;53.596;10.060;2022-12-24T02:03:03;28.70;;;13.60;;
1682;SDS011;13252;53.596;10.060;2022-12-24T02:05:33;30.57;;;14.87;;
1682;SDS011;13252;53.596;10.060;2022-12-24T02:08:03;27.70;;;14.10;;
1682;SDS011;13252;53.596;10.060;2022-12-24T02:10:31;29.47;;;15.03;;
1682;SDS011;13252;53.596;10.060;2022-12-24T02:12:59;29.87;;;14.00;;
1682;SDS011;13252;53.596;10.060;2022-12-24T02:15:31;26.50;;;14.67;;
1682;SDS011;13252;53.596;10.060;2022-12-24T02:18:04;27.80;;;14.43;;
1682;SDS011;13252;53.596;10.060;2022-12-24T02:20:57;31.70;;;14.10;;
1682;SDS011;13252;53.596;10.060;2022-12-24T02:24:01;26.17;;;13.00;;
1682;SDS011;13252;53.596;10.060;2022-12-24T02:26:43;28.20;;;13.70;;
1682;SDS011;13252;53.596;10.060;2022-12-24T02:29:29;22.83;;;13.23;;
1682;SDS011;13252;53.596;10.060;2022-12-24T02:32:12;31.13;;;13.73;;
1682;SDS011;13252;53.596;10.060;2022-12-24T02:34:43;29.60;;;12.10;;
1682;SDS011;13252;53.596;10.060;2022-12-24T02:37:13;32.27;;;14.47;;
1682;SDS011;13252;53.596;10.060;2022-12-24T02:39:44;30.47;;;14.17;;
1682;SDS011;13252;53.596;10.060;2022-12-24T02:42:14;22.27;;;12.37;;
1682;SDS011;13252;53.596;10.060;2022-12-24T02:44:46;22.40;;;12.40;;
1682;SDS011;13252;53.596;10.060;2022-12-24T02:47:15;29.93;;;13.50;;
1682;SDS011;13252;53.596;10.060;2022-12-24T02:49:44;29.63;;;14.40;;
1682;SDS011;13252;53.596;10.060;2022-12-24T02:52:30;24.87;;;13.50;;
1682;SDS011;13252;53.596;10.060;2022-12-24T02:55:01;25.80;;;12.73;;
1682;SDS011;13252;53.596;10.060;2022-12-24T02:57:33;36.43;;;14.93;;
1682;SDS011;13252;53.596;10.060;2022-12-24T03:02:44;32.33;;;12.50;;
1682;SDS011;13252;53.596;10.060;2022-12-24T03:05:18;24.97;;;12.83;;
1682;SDS011;13252;53.596;10.060;2022-12-24T03:07:51;23.40;;;12.77;;
1682;SDS011;13252;53.596;10.060;2022-12-24T03:10:26;24.30;;;12.00;;
1682;SDS011;13252;53.596;10.060;2022-12-24T03:12:59;25.13;;;12.20;;
1682;SDS011;13252;53.596;10.060;2022-12-24T03:15:30;25.57;;;12.10;;
1682;SDS011;13252;53.596;10.060;2022-12-24T03:17:59;24.87;;;11.33;;
1682;SDS011;13252;53.596;10.060;2022-12-24T03:20:30;22.40;;;12.50;;
1682;SDS011;13252;53.596;10.060;2022-12-24T03:23:00;25.33;;;13.10;;
1682;SDS011;13252;53.596;10.060;2022-12-24T03:25:27;24.20;;;13.13;;
1682;SDS011;13252;53.596;10.060;2022-12-24T03:27:55;20.80;;;12.20;;
1682;SDS011;13252;53.596;10.060;2022-12-24T03:30:23;24.70;;;12.60;;
1682;SDS011;13252;53.596;10.060;2022-12-24T03:32:53;23.40;;;11.67;;
1682;SDS011;13252;53.596;10.060;2022-12-24T03:35:21;19.23;;;10.83;;
1682;SDS011;13252;53.596;10.060;2022-12-24T03:37:49;17.30;;;10.93;;
1682;SDS011;13252;53.596;10.060;2022-12-24T03:40:16;23.63;;;12.40;;
1682;SDS011;13252;53.596;10.060;2022-12-24T03:42:44;25.03;;;10.13;;
1682;SDS011;13252;53.596;10.060;2022-12-24T03:45:12;19.30;;;10.40;;
1682;SDS011;13252;53.596;10.060;2022-12-24T03:47:39;20.97;;;10.53;;
1682;SDS011;13252;53.596;10.060;2022-12-24T03:50:09;19.87;;;10.33;;
1682;SDS011;13252;53.596;10.060;2022-12-24T03:52:36;26.10;;;12.10;;
1682;SDS011;13252;53.596;10.060;2022-12-24T03:55:04;19.93;;;11.10;;
1682;SDS011;13252;53.596;10.060;2022-12-24T03:57:32;22.60;;;10.90;;
1682;SDS011;13252;53.596;10.060;2022-12-24T04:00:00;26.50;;;11.47;;
1682;SDS011;13252;53.596;10.060;2022-12-24T04:02:37;15.53;;;10.00;;
1682;SDS011;13252;53.596;10.060;2022-12-24T04:05:05;18.03;;;10.47;;
1682;SDS011;13252;53.596;10.060;2022-12-24T04:10:04;19.17;;;10.90;;
1682;SDS011;13252;53.596;10.060;2022-12-24T04:12:32;17.13;;;9.77;;
1682;SDS011;13252;53.596;10.060;2022-12-24T04:15:00;13.53;;;9.20;;
1682;SDS011;13252;53.596;10.060;2022-12-24T04:17:27;17.60;;;11.07;;
1682;SDS011;13252;53.596;10.060;2022-12-24T04:19:55;16.57;;;9.23;;
1682;SDS011;13252;53.596;10.060;2022-12-24T04:22:23;16.10;;;10.17;;
1682;SDS011;13252;53.596;10.060;2022-12-24T04:24:52;20.87;;;11.10;;
1682;SDS011;13252;53.596;10.060;2022-12-24T04:27:19;17.17;;;10.30;;
1682;SDS011;13252;53.596;10.060;2022-12-24T04:29:55;21.23;;;9.90;;
1682;SDS011;13252;53.596;10.060;2022-12-24T04:32:23;16.90;;;10.30;;
1682;SDS011;13252;53.596;10.060;2022-12-24T04:34:51;20.33;;;10.43;;
1682;SDS011;13252;53.596;10.060;2022-12-24T04:37:19;15.43;;;8.87;;
1682;SDS011;13252;53.596;10.060;2022-12-24T04:39:46;16.47;;;9.90;;
1682;SDS011;13252;53.596;10.060;2022-12-24T04:42:15;17.43;;;10.13;;
1682;SDS011;13252;53.596;10.060;2022-12-24T04:44:43;18.47;;;9.10;;
1682;SDS011;13252;53.596;10.060;2022-12-24T04:47:11;15.20;;;8.83;;
1682;SDS011;13252;53.596;10.060;2022-12-24T04:49:38;14.83;;;9.07;;
1682;SDS011;13252;53.596;10.060;2022-12-24T04:52:06;17.47;;;9.07;;
1682;SDS011;13252;53.596;10.060;2022-12-24T04:54:34;16.83;;;10.07;;
1682;SDS011;13252;53.596;10.060;2022-12-24T04:57:01;17.17;;;11.03;;
1682;SDS011;13252;53.596;10.060;2022-12-24T04:59:30;17.63;;;10.37;;
1682;SDS011;13252;53.596;10.060;2022-12-24T05:01:58;16.03;;;10.00;;
1682;SDS011;13252;53.596;10.060;2022-12-24T05:04:26;17.63;;;9.67;;
1682;SDS011;13252;53.596;10.060;2022-12-24T05:06:54;16.07;;;9.37;;
1682;SDS011;13252;53.596;10.060;2022-12-24T05:09:21;15.70;;;8.73;;
1682;SDS011;13252;53.596;10.060;2022-12-24T05:11:49;18.03;;;10.70;;
1682;SDS011;13252;53.596;10.060;2022-12-24T05:14:17;18.33;;;11.37;;
1682;SDS011;13252;53.596;10.060;2022-12-24T05:16:46;16.63;;;10.20;;
1682;SDS011;13252;53.596;10.060;2022-12-24T05:19:14;18.30;;;10.70;;
1682;SDS011;13252;53.596;10.060;2022-12-24T05:21:42;16.70;;;10.37;;
1682;SDS011;13252;53.596;10.060;2022-12-24T05:24:09;18.37;;;10.23;;
1682;SDS011;13252;53.596;10.060;2022-12-24T05:26:55;13.10;;;8.50;;
1682;SDS011;13252;53.596;10.060;2022-12-24T05:29:24;17.63;;;10.70;;
1682;SDS011;13252;53.596;10.060;2022-12-24T05:31:53;19.23;;;10.80;;
1682;SDS011;13252;53.596;10.060;2022-12-24T05:34:20;17.17;;;10.03;;
1682;SDS011;13252;53.596;10.060;2022-12-24T05:36:48;19.93;;;10.47;;
1682;SDS011;13252;53.596;10.060;2022-12-24T05:39:16;19.27;;;10.47;;
1682;SDS011;13252;53.596;10.060;2022-12-24T05:41:45;16.50;;;9.77;;
1682;SDS011;13252;53.596;10.060;2022-12-24T05:44:13;17.00;;;9.60;;
1682;SDS011;13252;53.596;10.060;2022-12-24T05:46:41;14.50;;;9.30;;
1682;SDS011;13252;53.596;10.060;2022-12-24T05:49:10;22.00;;;9.40;;
1682;SDS011;13252;53.596;10.060;2022-12-24T05:51:38;16.27;;;9.53;;
1682;SDS011;13252;53.596;10.060;2022-12-24T05:54:06;17.37;;;9.87;;
1682;SDS011;13252;53.596;10.060;2022-12-24T05:56:34;18.23;;;10.80;;
1682;SDS011;13252;53.596;10.060;2022-12-24T05:59:41;16.57;;;10.93;;
1682;SDS011;13252;53.596;10.060;2022-12-24T06:02:56;13.57;;;8.70;;
1682;SDS011;13252;53.596;10.060;2022-12-24T06:07:07;12.37;;;8.83;;
1682;SDS011;13252;53.596;10.060;2022-12-24T06:09:39;15.70;;;9.97;;
1682;SDS011;13252;53.596;10.060;2022-12-24T06:12:36;14.07;;;9.03;;
1682;SDS011;13252;53.596;10.060;2022-12-24T06:15:05;15.63;;;11.07;;
1682;SDS011;13252;53.596;10.060;2022-12-24T06:17:33;13.97;;;8.80;;
1682;SDS011;13252;53.596;10.060;2022-12-24T06:20:01;11.83;;;8.07;;
1682;SDS011;13252;53.596;10.060;2022-12-24T06:22:30;19.70;;;8.83;;
1682;SDS011;13252;53.596;10.060;2022-12-24T06:24:58;16.30;;;9.17;;
1682;SDS011;13252;53.596;10.060;2022-12-24T06:27:25;15.97;;;9.10;;
1682;SDS011;13252;53.596;10.060;2022-12-24T06:29:53;13.40;;;8.90;;
1682;SDS011;13252;53.596;10.060;2022-12-24T06:32:20;12.60;;;7.87;;
1682;SDS011;13252;53.596;10.060;2022-12-24T06:34:48;13.40;;;8.47;;
1682;SDS011;13252;53.596;10.060;2022-12-24T06:37:16;13.80;;;8.63;;
1682;SDS011;13252;53.596;10.060;2022-12-24T06:39:45;13.37;;;8.33;;
1682;SDS011;13252;53.596;10.060;2022-12-24T06:42:13;14.33;;;7.87;;
1682;SDS011;13252;53.596;10.060;2022-12-24T06:44:41;13.80;;;8.13;;
1682;SDS011;13252;53.596;10.060;2022-12-24T06:47:08;13.60;;;7.53;;
1682;SDS011;13252;53.596;10.060;2022-12-24T06:49:36;10.20;;;7.27;;
1682;SDS011;13252;53.596;10.060;2022-12-24T06:52:04;11.07;;;7.87;;
1682;SDS011;13252;53.596;10.060;2022-12-24T06:54:31;11.80;;;7.60;;
1682;SDS011;13252;53.596;10.060;2022-12-24T06:57:00;10.77;;;7.17;;
1682;SDS011;13252;53.596;10.060;2022-12-24T06:59:28;7.50;;;5.40;;
1682;SDS011;13252;53.596;10.060;2022-12-24T07:01:55;10.87;;;8.23;;
1682;SDS011;13252;53.596;10.060;2022-12-24T07:04:23;10.30;;;7.23;;
1682;SDS011;13252;53.596;10.060;2022-12-24T07:06:51;9.50;;;5.90;;
1682;SDS011;13252;53.596;10.060;2022-12-24T07:09:19;10.90;;;6.23;;
1682;SDS011;13252;53.596;10.060;2022-12-24T07:11:46;10.33;;;5.83;;
1682;SDS011;13252;53.596;10.060;2022-12-24T07:14:15;9.00;;;6.10;;
1682;SDS011;13252;53.596;10.060;2022-12-24T07:16:43;9.67;;;6.47;;
1682;SDS011;13252;53.596;10.060;2022-12-24T07:19:11;13.77;;;6.20;;
1682;SDS011;13252;53.596;10.060;2022-12-24T07:21:39;9.83;;;6.70;;
1682;SDS011;13252;53.596;10.060;2022-12-24T07:24:06;10.80;;;6.63;;
1682;SDS011;13252;53.596;10.060;2022-12-24T07:26:34;8.37;;;6.33;;
1682;SDS011;13252;53.596;10.060;2022-12-24T07:29:01;10.17;;;6.17;;
1682;SDS011;13252;53.596;10.060;2022-12-24T07:31:30;12.30;;;7.37;;
1682;SDS011;13252;53.596;10.060;2022-12-24T07:33:58;8.60;;;6.17;;
1682;SDS011;13252;53.596;10.060;2022-12-24T07:36:26;10.80;;;6.77;;
1682;SDS011;13252;53.596;10.060;2022-12-24T07:38:54;11.10;;;7.20;;
1682;SDS011;13252;53.596;10.060;2022-12-24T07:41:22;10.70;;;7.00;;
1682;SDS011;13252;53.596;10.060;2022-12-24T07:43:49;10.67;;;6.17;;
1682;SDS011;13252;53.596;10.060;2022-12-24T07:46:17;8.70;;;5.90;;
1682;SDS011;13252;53.596;10.060;2022-12-24T07:48:46;8.80;;;6.70;;
1682;SDS011;13252;53.596;10.060;2022-12-24T07:51:14;8.00;;;6.23;;
1682;SDS011;13252;53.596;10.060;2022-12-24T07:53:41;8.93;;;6.20;;
1682;SDS011;13252;53.596;10.060;2022-12-24T07:56:13;9.43;;;6.20;;
1682;SDS011;13252;53.596;10.060;2022-12-24T07:58:40;11.20;;;6.33;;
1682;SDS011;13252;53.596;10.060;2022-12-24T08:01:08;9.23;;;5.67;;
1682;SDS011;13252;53.596;10.060;2022-12-24T08:03:37;9.20;;;6.73;;
1682;SDS011;13252;53.596;10.060;2022-12-24T08:06:06;8.33;;;6.03;;
1682;SDS011;13252;53.596;10.060;2022-12-24T08:08:35;8.57;;;5.60;;
1682;SDS011;13252;53.596;10.060;2022-12-24T08:11:04;9.23;;;6.77;;
1682;SDS011;13252;53.596;10.060;2022-12-24T08:13:32;9.60;;;6.37;;
1682;SDS011;13252;53.596;10.060;2022-12-24T08:16:00;9.00;;;6.30;;
1682;SDS011;13252;53.596;10.060;2022-12-24T08:18:28;9.50;;;6.50;;
1682;SDS011;13252;53.596;10.060;2022-12-24T08:20:55;10.90;;;6.87;;
1682;SDS011;13252;53.596;10.060;2022-12-24T08:23:25;9.57;;;6.50;;
1682;SDS011;13252;53.596;10.060;2022-12-24T08:25:52;8.27;;;6.03;;
1682;SDS011;13252;53.596;10.060;2022-12-24T08:28:20;10.43;;;7.33;;
1682;SDS011;13252;53.596;10.060;2022-12-24T08:30:48;10.63;;;7.17;;
1682;SDS011;13252;53.596;10.060;2022-12-24T08:33:16;12.30;;;7.47;;
1682;SDS011;13252;53.596;10.060;2022-12-24T08:35:47;10.00;;;6.70;;
1682;SDS011;13252;53.596;10.060;2022-12-24T08:38:15;7.50;;;6.20;;
1682;SDS011;13252;53.596;10.060;2022-12-24T08:40:44;11.93;;;7.07;;
1682;SDS011;13252;53.596;10.060;2022-12-24T08:43:15;9.13;;;7.17;;
1682;SDS011;13252;53.596;10.060;2022-12-24T08:45:43;9.77;;;6.53;;
1682;SDS011;13252;53.596;10.060;2022-12-24T08:48:11;9.27;;;6.80;;
1682;SDS011;13252;53.596;10.060;2022-12-24T08:50:39;9.27;;;7.33;;
1682;SDS011;13252;53.596;10.060;2022-12-24T08:53:08;9.30;;;6.07;;
1682;SDS011;13252;53.596;10.060;2022-12-24T08:55:36;8.50;;;6.60;;
1682;SDS011;13252;53.596;10.060;2022-12-24T08:58:06;10.50;;;6.87;;
1682;SDS011;13252;53.596;10.060;2022-12-24T09:00:34;8.00;;;6.10;;
1682;SDS011;13252;53.596;10.060;2022-12-24T09:03:02;9.07;;;6.70;;
1682;SDS011;13252;53.596;10.060;2022-12-24T09:05:30;12.67;;;7.13;;
1682;SDS011;13252;53.596;10.060;2022-12-24T09:07:58;9.60;;;7.33;;
1682;SDS011;13252;53.596;10.060;2022-12-24T09:10:26;7.83;;;6.00;;
1682;SDS011;13252;53.596;10.060;2022-12-24T09:12:53;10.20;;;7.13;;
1682;SDS011;13252;53.596;10.060;2022-12-24T09:15:23;8.20;;;6.43;;
1682;SDS011;13252;53.596;10.060;2022-12-24T09:17:51;7.47;;;5.63;;
1682;SDS011;13252;53.596;10.060;2022-12-24T09:20:19;8.70;;;5.97;;
1682;SDS011;13252;53.596;10.060;2022-12-24T09:22:46;9.50;;;7.20;;
1682;SDS011;13252;53.596;10.060;2022-12-24T09:25:14;8.80;;;6.90;;
1682;SDS011;13252;53.596;10.060;2022-12-24T09:27:42;9.53;;;7.23;;
1682;SDS011;13252;53.596;10.060;2022-12-24T09:30:10;10.73;;;7.47;;
1682;SDS011;13252;53.596;10.060;2022-12-24T09:32:40;9.77;;;6.47;;
1682;SDS011;13252;53.596;10.060;2022-12-24T09:35:08;8.63;;;6.80;;
1682;SDS011;13252;53.596;10.060;2022-12-24T09:37:36;10.20;;;6.40;;
1682;SDS011;13252;53.596;10.060;2022-12-24T09:40:04;9.53;;;6.57;;
1682;SDS011;13252;53.596;10.060;2022-12-24T09:42:36;11.30;;;7.13;;
1682;SDS011;13252;53.596;10.060;2022-12-24T09:45:12;8.33;;;6.37;;
1682;SDS011;13252;53.596;10.060;2022-12-24T09:47:45;8.57;;;7.13;;
1682;SDS011;13252;53.596;10.060;2022-12-24T09:53:06;9.60;;;7.30;;
1682;SDS011;13252;53.596;10.060;2022-12-24T09:55:42;11.00;;;7.40;;
1682;SDS011;13252;53.596;10.060;2022-12-24T09:58:14;10.23;;;6.53;;
1682;SDS011;13252;53.596;10.060;2022-12-24T10:00:46;11.13;;;7.30;;
1682;SDS011;13252;53.596;10.060;2022-12-24T10:03:17;10.10;;;8.07;;
1682;SDS011;13252;53.596;10.060;2022-12-24T10:05:46;10.43;;;7.40;;
1682;SDS011;13252;53.596;10.060;2022-12-24T10:08:20;9.50;;;7.53;;
1682;SDS011;13252;53.596;10.060;2022-12-24T10:10:52;8.07;;;6.63;;
1682;SDS011;13252;53.596;10.060;2022-12-24T10:13:25;8.93;;;7.30;;
1682;SDS011;13252;53.596;10.060;2022-12-24T10:15:59;9.90;;;6.37;;
1682;SDS011;13252;53.596;10.060;2022-12-24T10:18:33;9.40;;;6.57;;
1682;SDS011;13252;53.596;10.060;2022-12-24T10:21:13;12.20;;;8.23;;
1682;SDS011;13252;53.596;10.060;2022-12-24T10:23:43;8.90;;;7.80;;
1682;SDS011;13252;53.596;10.060;2022-12-24T10:26:14;12.83;;;7.60;;
1682;SDS011;13252;53.596;10.060;2022-12-24T10:28:44;8.10;;;6.97;;
1682;SDS011;13252;53.596;10.060;2022-12-24T10:31:14;8.07;;;6.83;;
1682;SDS011;13252;53.596;10.060;2022-12-24T10:33:44;9.57;;;8.23;;
1682;SDS011;13252;53.596;10.060;2022-12-24T10:36:14;8.43;;;6.43;;
1682;SDS011;13252;53.596;10.060;2022-12-24T10:38:44;8.43;;;7.07;;
1682;SDS011;13252;53.596;10.060;2022-12-24T10:41:13;10.40;;;8.37;;
1682;SDS011;13252;53.596;10.060;2022-12-24T10:43:41;11.23;;;8.40;;
1682;SDS011;13252;53.596;10.060;2022-12-24T10:46:13;9.80;;;7.97;;
1682;SDS011;13252;53.596;10.060;2022-12-24T10:48:47;10.53;;;8.27;;
1682;SDS011;13252;53.596;10.060;2022-12-24T10:51:19;12.43;;;9.17;;
1682;SDS011;13252;53.596;10.060;2022-12-24T10:53:50;9.53;;;8.20;;
1682;SDS011;13252;53.596;10.060;2022-12-24T10:56:18;11.00;;;8.67;;
1682;SDS011;13252;53.596;10.060;2022-12-24T10:58:49;123.23;;;90.00;;
1682;SDS011;13252;53.596;10.060;2022-12-24T11:01:18;13.73;;;11.80;;
1682;SDS011;13252;53.596;10.060;2022-12-24T11:03:58;9.90;;;7.93;;
1682;SDS011;13252;53.596;10.060;2022-12-24T11:06:27;12.17;;;9.00;;
1682;SDS011;13252;53.596;10.060;2022-12-24T11:08:54;9.20;;;7.90;;
1682;SDS011;13252;53.596;10.060;2022-12-24T11:11:39;11.60;;;9.80;;
1682;SDS011;13252;53.596;10.060;2022-12-24T11:14:10;11.30;;;8.67;;
1682;SDS011;13252;53.596;10.060;2022-12-24T11:16:39;11.73;;;8.80;;
1682;SDS011;13252;53.596;10.060;2022-12-24T11:19:14;9.70;;;8.70;;
1682;SDS011;13252;53.596;10.060;2022-12-24T11:21:43;13.20;;;9.73;;
1682;SDS011;13252;53.596;10.060;2022-12-24T11:24:19;14.17;;;10.37;;
1682;SDS011;13252;53.596;10.060;2022-12-24T11:26:51;12.80;;;10.20;;
1682;SDS011;13252;53.596;10.060;2022-12-24T11:29:19;14.30;;;10.03;;
1682;SDS011;13252;53.596;10.060;2022-12-24T11:31:48;11.40;;;10.20;;
1682;SDS011;13252;53.596;10.060;2022-12-24T11:34:23;10.80;;;9.37;;
1682;SDS011;13252;53.596;10.060;2022-12-24T11:36:53;13.40;;;10.07;;
1682;SDS011;13252;53.596;10.060;2022-12-24T11:39:22;14.30;;;9.80;;
1682;SDS011;13252;53.596;10.060;2022-12-24T11:41:52;14.67;;;10.70;;
1682;SDS011;13252;53.596;10.060;2022-12-24T11:44:23;15.33;;;10.07;;
1682;SDS011;13252;53.596;10.060;2022-12-24T11:46:53;12.27;;;10.00;;
1682;SDS011;13252;53.596;10.060;2022-12-24T11:49:24;12.00;;;10.40;;
1682;SDS011;13252;53.596;10.060;2022-12-24T11:57:45;11.37;;;9.87;;
1682;SDS011;13252;53.596;10.060;2022-12-24T12:00:18;13.80;;;10.50;;
1682;SDS011;13252;53.596;10.060;2022-12-24T12:02:46;11.23;;;9.90;;
1682;SDS011;13252;53.596;10.060;2022-12-24T12:05:17;15.63;;;11.70;;
1682;SDS011;13252;53.596;10.060;2022-12-24T12:07:49;12.73;;;11.10;;
1682;SDS011;13252;53.596;10.060;2022-12-24T12:10:18;11.33;;;10.10;;
1682;SDS011;13252;53.596;10.060;2022-12-24T12:12:49;11.30;;;10.03;;
1682;SDS011;13252;53.596;10.060;2022-12-24T12:15:23;13.20;;;11.37;;
1682;SDS011;13252;53.596;10.060;2022-12-24T12:17:53;12.77;;;10.30;;
1682;SDS011;13252;53.596;10.060;2022-12-24T12:20:24;15.53;;;11.50;;
1682;SDS011;13252;53.596;10.060;2022-12-24T12:22:55;16.83;;;12.33;;
1682;SDS011;13252;53.596;10.060;2022-12-24T12:25:25;16.10;;;12.20;;
1682;SDS011;13252;53.596;10.060;2022-12-24T12:27:57;13.80;;;11.87;;
1682;SDS011;13252;53.596;10.060;2022-12-24T12:30:27;11.60;;;10.10;;
1682;SDS011;13252;53.596;10.060;2022-12-24T12:32:56;12.83;;;11.47;;
1682;SDS011;13252;53.596;10.060;2022-12-24T12:35:28;14.67;;;10.83;;
1682;SDS011;13252;53.596;10.060;2022-12-24T12:37:58;13.30;;;11.10;;
1682;SDS011;13252;53.596;10.060;2022-12-24T12:40:40;14.23;;;11.27;;
1682;SDS011;13252;53.596;10.060;2022-12-24T12:43:20;12.10;;;10.80;;
1682;SDS011;13252;53.596;10.060;2022-12-24T12:45:56;15.60;;;12.40;;
1682;SDS011;13252;53.596;10.060;2022-12-24T12:48:37;17.07;;;14.20;;
1682;SDS011;13252;53.596;10.060;2022-12-24T12:51:31;15.87;;;11.60;;
1682;SDS011;13252;53.596;10.060;2022-12-24T12:54:08;12.07;;;10.83;;
1682;SDS011;13252;53.596;10.060;2022-12-24T12:56:42;17.50;;;14.10;;
1682;SDS011;13252;53.596;10.060;2022-12-24T12:59:13;16.53;;;12.40;;
1682;SDS011;13252;53.596;10.060;2022-12-24T13:01:44;16.00;;;13.17;;
1682;SDS011;13252;53.596;10.060;2022-12-24T13:04:31;13.70;;;11.97;;
1682;SDS011;13252;53.596;10.060;2022-12-24T13:07:21;19.20;;;11.13;;
1682;SDS011;13252;53.596;10.060;2022-12-24T13:10:07;26.07;;;14.70;;
1682;SDS011;13252;53.596;10.060;2022-12-24T13:12:56;17.77;;;11.77;;
1682;SDS011;13252;53.596;10.060;2022-12-24T13:15:47;25.00;;;16.20;;
1682;SDS011;13252;53.596;10.060;2022-12-24T13:18:39;28.20;;;15.23;;
1682;SDS011;13252;53.596;10.060;2022-12-24T13:21:15;21.10;;;15.27;;
1682;SDS011;13252;53.596;10.060;2022-12-24T13:23:45;20.57;;;14.90;;
1682;SDS011;13252;53.596;10.060;2022-12-24T13:26:14;22.47;;;15.07;;
1682;SDS011;13252;53.596;10.060;2022-12-24T13:28:42;30.00;;;20.53;;
1682;SDS011;13252;53.596;10.060;2022-12-24T13:31:26;21.67;;;14.73;;
1682;SDS011;13252;53.596;10.060;2022-12-24T13:33:59;20.57;;;15.30;;
1682;SDS011;13252;53.596;10.060;2022-12-24T13:39:29;27.90;;;15.87;;
1682;SDS011;13252;53.596;10.060;2022-12-24T13:42:48;26.57;;;15.47;;
1682;SDS011;13252;53.596;10.060;2022-12-24T13:48:12;31.37;;;16.40;;
1682;SDS011;13252;53.596;10.060;2022-12-24T13:50:46;33.53;;;17.57;;
1682;SDS011;13252;53.596;10.060;2022-12-24T13:53:20;23.00;;;15.77;;
1682;SDS011;13252;53.596;10.060;2022-12-24T13:55:51;29.97;;;17.30;;
1682;SDS011;13252;53.596;10.060;2022-12-24T13:58:21;37.83;;;18.80;;
1682;SDS011;13252;53.596;10.060;2022-12-24T14:00:52;28.00;;;16.67;;
1682;SDS011;13252;53.596;10.060;2022-12-24T14:03:25;35.20;;;17.60;;
1682;SDS011;13252;53.596;10.060;2022-12-24T14:05:55;35.13;;;16.07;;
1682;SDS011;13252;53.596;10.060;2022-12-24T14:08:26;39.13;;;17.80;;
1682;SDS011;13252;53.596;10.060;2022-12-24T14:11:04;31.33;;;17.73;;
1682;SDS011;13252;53.596;10.060;2022-12-24T14:13:49;26.47;;;15.80;;
1682;SDS011;13252;53.596;10.060;2022-12-24T14:16:20;26.83;;;14.23;;
1682;SDS011;13252;53.596;10.060;2022-12-24T14:18:56;32.97;;;15.70;;
1682;SDS011;13252;53.596;10.060;2022-12-24T14:21:25;29.93;;;13.60;;
1682;SDS011;13252;53.596;10.060;2022-12-24T14:23:56;38.37;;;14.47;;
1682;SDS011;13252;53.596;10.060;2022-12-24T14:26:27;34.00;;;13.70;;
1682;SDS011;13252;53.596;10.060;2022-12-24T14:28:58;26.83;;;13.27;;
1682;SDS011;13252;53.596;10.060;2022-12-24T14:31:28;37.70;;;14.40;;
1682;SDS011;13252;53.596;10.060;2022-12-24T14:34:04;43.77;;;14.67;;
1682;SDS011;13252;53.596;10.060;2022-12-24T14:36:33;40.63;;;14.90;;
1682;SDS011;13252;53.596;10.060;2022-12-24T14:39:02;37.70;;;13.83;;
1682;SDS011;13252;53.596;10.060;2022-12-24T14:41:38;35.97;;;12.87;;
1682;SDS011;13252;53.596;10.060;2022-12-24T14:44:10;36.40;;;15.40;;
1682;SDS011;13252;53.596;10.060;2022-12-24T14:46:43;41.37;;;13.93;;
1682;SDS011;13252;53.596;10.060;2022-12-24T14:49:22;35.73;;;15.07;;
1682;SDS011;13252;53.596;10.060;2022-12-24T14:51:58;23.87;;;14.00;;
1682;SDS011;13252;53.596;10.060;2022-12-24T14:54:33;41.63;;;16.77;;
1682;SDS011;13252;53.596;10.060;2022-12-24T14:57:13;31.30;;;16.23;;
1682;SDS011;13252;53.596;10.060;2022-12-24T14:59:45;35.33;;;17.30;;
1682;SDS011;13252;53.596;10.060;2022-12-24T15:02:21;31.60;;;16.70;;
1682;SDS011;13252;53.596;10.060;2022-12-24T15:05:03;34.17;;;15.63;;
1682;SDS011;13252;53.596;10.060;2022-12-24T15:07:43;32.13;;;16.37;;
1682;SDS011;13252;53.596;10.060;2022-12-24T15:10:24;27.90;;;16.20;;
1682;SDS011;13252;53.596;10.060;2022-12-24T15:12:55;46.73;;;14.37;;